Time;durP1;ratioP1;P1;durP2;ratioP2;P2;SDS_P1;SDS_P2;PMS_P1;PMS_P2;Temp;Humidity;BMP_temperature;BMP_pressure;BME280_temperature;BME280_humidity;BME280_pressure;Samples;Min_cycle;Max_cycle;Signal;HPM_P1;HPM_P2
2023/12/16 00:01:12;;;;;;;8.00;7.17;;;;;;;3.25;100.00;101378.59;5109082;28;20279;-76
2023/12/16 00:03:40;;;;;;;8.20;7.40;;;;;;;3.28;100.00;101382.75;5106138;28;20188;-77
2023/12/16 00:06:08;;;;;;;9.10;7.57;;;;;;;3.28;100.00;101388.06;5101553;28;20234;-77
2023/12/16 00:08:35;;;;;;;8.30;7.17;;;;;;;3.28;100.00;101374.81;5105912;28;20219;-79
2023/12/16 00:11:12;;;;;;;;;;;;;;;;;;;;;
2023/12/16 00:13:44;;;;;;;7.73;6.93;;;;;;;3.28;100.00;101365.06;5113750;28;20192;-78
2023/12/16 00:16:15;;;;;;;8.23;7.20;;;;;;;3.29;100.00;101363.25;5113723;28;20206;-77
2023/12/16 00:18:42;;;;;;;7.60;6.80;;;;;;;3.28;100.00;101361.56;5110837;27;20249;-76
2023/12/16 00:21:14;;;;;;;8.27;7.10;;;;;;;3.26;100.00;101363.53;5113536;28;20187;-78
2023/12/16 00:23:44;;;;;;;7.90;7.10;;;;;;;3.23;100.00;101366.41;5102825;28;20287;-77
2023/12/16 00:26:11;;;;;;;8.50;6.57;;;;;;;3.20;100.00;101372.00;5111950;28;20211;-78
2023/12/16 00:28:40;;;;;;;7.83;7.03;;;;;;;3.17;100.00;101386.34;5113274;28;20244;-77
2023/12/16 00:31:07;;;;;;;8.80;7.13;;;;;;;3.15;100.00;101371.53;5111810;28;20214;-78
2023/12/16 00:33:36;;;;;;;9.17;7.63;;;;;;;3.10;100.00;101366.63;5102407;28;20301;-78
2023/12/16 00:36:06;;;;;;;12.90;9.87;;;;;;;3.08;100.00;101363.25;5098646;28;20596;-77
2023/12/16 00:38:35;;;;;;;16.23;11.90;;;;;;;3.07;100.00;101367.75;5108920;27;20232;-78
2023/12/16 00:41:03;;;;;;;14.13;10.17;;;;;;;3.02;100.00;101355.84;5106050;28;20195;-76
2023/12/16 00:43:32;;;;;;;10.07;8.07;;;;;;;2.99;100.00;101359.56;5104858;27;20282;-77
2023/12/16 00:45:59;;;;;;;8.77;7.23;;;;;;;2.93;100.00;101364.56;5100978;28;20215;-78
2023/12/16 00:48:25;;;;;;;7.70;6.83;;;;;;;2.87;100.00;101373.84;5101995;28;21376;-76
2023/12/16 00:50:52;;;;;;;8.07;7.13;;;;;;;2.79;100.00;101367.53;5100648;28;20336;-77
2023/12/16 00:53:22;;;;;;;7.67;6.50;;;;;;;2.74;100.00;101372.34;5096789;28;20250;-76
2023/12/16 00:55:49;;;;;;;7.17;6.23;;;;;;;2.70;100.00;101369.13;5100344;28;20285;-76
2023/12/16 00:58:20;;;;;;;8.27;6.83;;;;;;;2.65;100.00;101358.94;5098004;28;20721;-77
2023/12/16 01:00:47;;;;;;;8.23;7.03;;;;;;;2.62;100.00;101363.59;5098760;28;20244;-76
2023/12/16 01:03:17;;;;;;;11.00;9.30;;;;;;;2.56;100.00;101370.28;5092901;28;20600;-76
2023/12/16 01:05:47;;;;;;;11.60;9.37;;;;;;;2.51;100.00;101382.19;5101677;28;20233;-79
2023/12/16 01:08:16;;;;;;;11.60;9.07;;;;;;;2.48;100.00;101383.25;5107398;28;20203;-76
2023/12/16 01:10:42;;;;;;;8.63;7.73;;;;;;;2.46;100.00;101390.50;5112646;28;20187;-77
2023/12/16 01:13:15;;;;;;;11.63;9.07;;;;;;;2.46;100.00;101398.44;5096475;28;20200;-77
2023/12/16 01:15:42;;;;;;;13.30;10.13;;;;;;;2.45;100.00;101395.91;5112476;28;20187;-77
2023/12/16 01:18:09;;;;;;;10.57;8.93;;;;;;;2.43;100.00;101384.59;5105563;28;20285;-76
2023/12/16 01:20:57;;;;;;;11.80;9.37;;;;;;;2.43;100.00;101395.19;5112599;28;20195;-76
2023/12/16 01:23:23;;;;;;;11.00;9.47;;;;;;;2.43;100.00;101396.03;5102076;28;20204;-78
2023/12/16 01:25:51;;;;;;;12.53;9.67;;;;;;;2.42;100.00;101397.00;5112346;28;20218;-77
2023/12/16 01:28:18;;;;;;;12.80;10.37;;;;;;;2.39;100.00;101405.19;5111394;28;20179;-77
2023/12/16 01:30:44;;;;;;;11.90;9.13;;;;;;;2.41;100.00;101408.56;5095626;28;20729;-76
2023/12/16 01:33:12;;;;;;;10.63;9.03;;;;;;;2.48;100.00;101411.53;5108062;28;20247;-76
2023/12/16 01:35:40;;;;;;;11.73;8.33;;;;;;;2.68;100.00;101410.75;5093470;28;20270;-77
2023/12/16 01:38:06;;;;;;;9.17;7.87;;;;;;;2.79;100.00;101413.38;5107688;28;20322;-76
2023/12/16 01:40:33;;;;;;;9.50;8.03;;;;;;;2.94;100.00;101408.63;5107655;28;20217;-76
2023/12/16 01:43:07;;;;;;;8.33;7.27;;;;;;;3.08;100.00;101414.41;5108065;28;20183;-76
2023/12/16 01:45:34;;;;;;;9.47;7.90;;;;;;;3.12;100.00;101412.38;5107762;28;20222;-76
2023/12/16 01:48:04;;;;;;;8.53;7.63;;;;;;;3.18;100.00;101411.84;5094266;28;20252;-77
2023/12/16 01:50:37;;;;;;;8.87;6.97;;;;;;;3.23;100.00;101414.94;5109117;28;20187;-76
2023/12/16 01:53:05;;;;;;;8.23;7.17;;;;;;;3.32;100.00;101415.97;5100842;28;20274;-76
2023/12/16 01:55:35;;;;;;;9.00;7.53;;;;;;;3.40;100.00;101413.53;5112326;28;20291;-77
2023/12/16 01:58:02;;;;;;;8.93;7.60;;;;;;;3.46;100.00;101408.53;5110438;28;20660;-76
2023/12/16 02:00:29;;;;;;;8.50;7.60;;;;;;;3.49;100.00;101412.75;5113365;28;20271;-76
2023/12/16 02:03:00;;;;;;;9.00;7.30;;;;;;;3.62;100.00;101404.59;5107630;28;20472;-76
2023/12/16 02:05:28;;;;;;;9.37;7.63;;;;;;;3.57;100.00;101415.56;5111635;28;20231;-77
2023/12/16 02:07:55;;;;;;;8.33;7.43;;;;;;;3.56;100.00;101413.91;5109026;28;20191;-77
2023/12/16 02:10:23;;;;;;;7.33;6.50;;;;;;;3.61;100.00;101413.50;5113035;28;20198;-76
2023/12/16 02:12:50;;;;;;;7.97;7.17;;;;;;;3.59;100.00;101413.66;5115679;28;20290;-76
2023/12/16 02:15:20;;;;;;;7.30;6.60;;;;;;;3.62;100.00;101418.69;5114367;28;20241;-79
2023/12/16 02:17:51;;;;;;;7.70;6.90;;;;;;;3.63;100.00;101417.72;5105840;28;20200;-77
2023/12/16 02:20:18;;;;;;;8.30;6.50;;;;;;;3.74;100.00;101420.25;5115561;28;20187;-78
2023/12/16 02:22:46;;;;;;;7.47;6.63;;;;;;;3.70;100.00;101418.00;5114525;28;20526;-76
2023/12/16 02:25:15;;;;;;;7.97;6.93;;;;;;;3.70;100.00;101413.53;5099489;28;20249;-78
2023/12/16 02:28:04;;;;;;;8.03;6.80;;;;;;;3.74;100.00;101414.97;5098833;28;20211;-76
2023/12/16 02:30:31;;;;;;;7.63;6.43;;;;;;;3.75;100.00;101407.84;5102488;28;20187;-76
2023/12/16 02:32:59;;;;;;;6.73;5.93;;;;;;;3.79;100.00;101418.06;5097071;28;20555;-78
2023/12/16 02:35:27;;;;;;;6.80;6.10;;;;;;;3.82;100.00;101411.66;5103397;28;20200;-78
2023/12/16 02:37:54;;;;;;;6.67;5.97;;;;;;;3.83;100.00;101419.47;5110261;28;20279;-77
2023/12/16 02:40:23;;;;;;;6.47;5.87;;;;;;;3.82;100.00;101433.72;5102467;28;20188;-76
2023/12/16 02:42:55;;;;;;;6.90;6.20;;;;;;;3.76;100.00;101433.41;5115504;28;20260;-76
2023/12/16 02:45:22;;;;;;;7.10;6.37;;;;;;;3.68;100.00;101434.06;5109448;28;20211;-76
2023/12/16 02:47:48;;;;;;;6.90;6.20;;;;;;;3.64;100.00;101434.47;5109141;28;20206;-79
2023/12/16 02:50:23;;;;;;;7.70;6.13;;;;;;;3.59;100.00;101437.50;5104731;28;20270;-77
2023/12/16 02:52:57;;;;;;;8.17;5.90;;;;;;;3.55;100.00;101438.72;5105490;28;20192;-75
2023/12/16 02:55:24;;;;;;;7.67;6.50;;;;;;;3.44;100.00;101433.50;5109419;28;20229;-76
2023/12/16 02:57:56;;;;;;;7.07;6.00;;;;;;;3.34;100.00;101444.03;5108619;28;20198;-76
2023/12/16 03:00:22;;;;;;;6.53;5.80;;;;;;;3.26;100.00;101443.84;5115107;28;20683;-77
2023/12/16 03:02:51;;;;;;;8.17;6.33;;;;;;;3.28;100.00;101447.19;5088532;28;20192;-76
2023/12/16 03:05:21;;;;;;;6.70;6.00;;;;;;;3.23;100.00;101451.19;5108467;28;20222;-78
2023/12/16 03:07:49;;;;;;;8.53;6.50;;;;;;;3.18;100.00;101450.72;5111931;28;20195;-77
2023/12/16 03:10:17;;;;;;;7.20;6.17;;;;;;;3.15;100.00;101449.19;5114812;28;20199;-76
2023/12/16 03:12:46;;;;;;;7.47;6.40;;;;;;;3.04;100.00;101454.53;5110760;28;20195;-77
2023/12/16 03:15:19;;;;;;;6.70;5.70;;;;;;;3.01;100.00;101447.69;5101799;28;20242;-78
2023/12/16 03:17:51;;;;;;;7.10;6.40;;;;;;;2.95;100.00;101461.41;5105664;28;20197;-78
2023/12/16 03:20:18;;;;;;;8.37;6.70;;;;;;;2.90;100.00;101462.75;5103246;28;20196;-78
2023/12/16 03:22:45;;;;;;;7.53;6.00;;;;;;;2.84;100.00;101460.63;5103640;28;20250;-76
2023/12/16 03:25:12;;;;;;;6.53;5.87;;;;;;;2.81;100.00;101468.81;5102326;28;20189;-77
2023/12/16 03:27:40;;;;;;;6.53;5.93;;;;;;;2.88;100.00;101465.56;5097442;28;20294;-77
2023/12/16 03:30:08;;;;;;;6.77;5.83;;;;;;;2.83;100.00;101461.59;5095292;28;20200;-75
2023/12/16 03:32:35;;;;;;;7.07;6.13;;;;;;;2.78;100.00;101469.06;5102842;28;20199;-81
2023/12/16 03:35:02;;;;;;;6.87;6.17;;;;;;;2.81;100.00;101472.28;5103401;28;20215;-76
2023/12/16 03:37:34;;;;;;;7.07;6.07;;;;;;;2.83;100.00;101478.31;5094103;28;20191;-79
2023/12/16 03:40:01;;;;;;;7.07;6.17;;;;;;;2.83;100.00;101472.19;5099824;28;20221;-78
2023/12/16 03:42:28;;;;;;;6.60;5.87;;;;;;;2.80;100.00;101480.38;5095461;28;20272;-77
2023/12/16 03:44:55;;;;;;;7.87;6.17;;;;;;;2.85;100.00;101480.81;5090440;28;20188;-77
2023/12/16 03:47:26;;;;;;;6.63;5.93;;;;;;;2.86;100.00;101482.50;5097987;28;20222;-76
2023/12/16 03:49:53;;;;;;;7.90;6.53;;;;;;;2.90;100.00;101484.78;5099658;28;20214;-77
2023/12/16 03:52:20;;;;;;;7.87;6.50;;;;;;;2.85;100.00;101479.03;5113867;28;20211;-77
2023/12/16 03:54:47;;;;;;;7.57;6.07;;;;;;;2.83;100.00;101477.47;5106506;28;20230;-76
2023/12/16 03:57:15;;;;;;;7.27;6.40;;;;;;;2.88;100.00;101486.72;5111626;28;20228;-77
2023/12/16 03:59:45;;;;;;;6.87;5.87;;;;;;;2.92;100.00;101487.31;5096776;28;20185;-78
2023/12/16 04:02:11;;;;;;;7.00;5.97;;;;;;;3.03;100.00;101482.81;5103821;28;20676;-77
2023/12/16 04:04:38;;;;;;;6.77;5.90;;;;;;;3.07;100.00;101481.63;5109479;28;20204;-76
2023/12/16 04:07:05;;;;;;;6.93;6.10;;;;;;;3.09;100.00;101484.13;5105414;28;20228;-77
2023/12/16 04:09:33;;;;;;;6.90;6.20;;;;;;;3.12;100.00;101486.53;5105414;28;20271;-78
2023/12/16 04:12:05;;;;;;;6.60;5.50;;;;;;;3.31;100.00;101475.25;5113735;28;20275;-76
2023/12/16 04:14:38;;;;;;;7.57;6.20;;;;;;;3.32;100.00;101472.44;5095874;28;20195;-79
2023/12/16 04:17:09;;;;;;;7.67;6.10;;;;;;;3.40;100.00;101467.38;5094968;28;20189;-79
2023/12/16 04:19:52;;;;;;;6.83;6.10;;;;;;;3.59;100.00;101471.13;5097441;28;20211;-78
2023/12/16 04:22:21;;;;;;;7.00;6.20;;;;;;;3.58;100.00;101464.13;5098681;28;20660;-78
2023/12/16 04:24:57;;;;;;;7.23;6.33;;;;;;;3.59;100.00;101471.13;5102826;28;20201;-78
2023/12/16 04:27:26;;;;;;;7.63;6.83;;;;;;;3.69;100.00;101459.56;5103802;28;20211;-79
2023/12/16 04:29:56;;;;;;;7.30;6.40;;;;;;;3.62;100.00;101460.25;5096200;28;20188;-77
2023/12/16 04:32:26;;;;;;;8.60;6.87;;;;;;;3.72;100.00;101469.94;5113341;28;20245;-78
2023/12/16 04:35:14;;;;;;;9.40;6.87;;;;;;;3.70;100.00;101478.97;5112481;28;20210;-79
2023/12/16 04:37:43;;;;;;;7.27;6.57;;;;;;;3.71;100.00;101481.50;5111623;28;20211;-77
2023/12/16 04:40:16;;;;;;;8.23;6.90;;;;;;;3.82;100.00;101483.25;5111407;28;20191;-79
2023/12/16 04:42:44;;;;;;;7.20;6.50;;;;;;;3.86;100.00;101488.16;5106117;28;20202;-78
2023/12/16 04:45:13;;;;;;;7.90;6.57;;;;;;;3.97;100.00;101487.22;5098400;28;20188;-79
2023/12/16 04:48:00;;;;;;;7.20;6.50;;;;;;;3.96;100.00;101483.75;5104424;28;20225;-78
2023/12/16 04:50:30;;;;;;;8.47;6.60;;;;;;;3.92;100.00;101489.41;5102625;28;20210;-78
2023/12/16 04:52:57;;;;;;;7.47;6.73;;;;;;;3.88;100.00;101486.19;5107504;28;20180;-78
2023/12/16 04:55:24;;;;;;;8.27;6.90;;;;;;;3.85;100.00;101486.47;5104412;28;20721;-78
2023/12/16 04:57:51;;;;;;;8.03;6.80;;;;;;;3.82;100.00;101501.81;5098188;28;20222;-79
2023/12/16 05:00:20;;;;;;;7.47;6.77;;;;;;;3.78;100.00;101508.34;5104557;28;20269;-80
2023/12/16 05:02:49;;;;;;;6.80;6.10;;;;;;;3.74;100.00;101518.34;5101072;28;20199;-77
2023/12/16 05:05:19;;;;;;;7.63;5.90;;;;;;;3.75;100.00;101529.81;5105570;28;20649;-78
2023/12/16 05:07:46;;;;;;;6.57;5.97;;;;;;;3.76;100.00;101537.63;5104333;28;20223;-79
2023/12/16 05:10:13;;;;;;;7.03;6.33;;;;;;;3.79;100.00;101533.88;5112464;28;20198;-79
2023/12/16 05:12:43;;;;;;;7.30;6.40;;;;;;;3.82;100.00;101531.81;5102528;28;20204;-79
2023/12/16 05:15:13;;;;;;;7.20;6.50;;;;;;;3.82;100.00;101530.97;5096845;28;20212;-79
2023/12/16 05:17:53;;;;;;;8.00;6.50;;;;;;;3.87;100.00;101545.50;5106088;28;20188;-80
2023/12/16 05:20:26;;;;;;;9.03;7.00;;;;;;;3.92;100.00;101542.47;5099251;28;20201;-78
2023/12/16 05:22:55;;;;;;;7.10;6.40;;;;;;;3.85;100.00;101542.16;5102451;28;20187;-79
2023/12/16 05:25:27;;;;;;;7.97;6.37;;;;;;;3.80;100.00;101547.00;5098460;28;20617;-80
2023/12/16 05:27:55;;;;;;;7.37;6.07;;;;;;;3.75;100.00;101541.25;5105310;28;20215;-80
2023/12/16 05:30:22;;;;;;;7.97;6.37;;;;;;;3.74;100.00;101546.66;5100107;28;20195;-79
2023/12/16 05:32:50;;;;;;;7.17;6.47;;;;;;;3.62;100.00;101545.06;5093342;28;20599;-79
2023/12/16 05:35:21;;;;;;;7.00;6.30;;;;;;;3.68;100.00;101557.81;5094500;28;20191;-79
2023/12/16 05:37:48;;;;;;;7.47;6.10;;;;;;;3.58;100.00;101543.66;5095854;28;20200;-79
2023/12/16 05:40:18;;;;;;;7.47;6.67;;;;;;;3.47;100.00;101555.97;5109774;28;20201;-81
2023/12/16 05:42:46;;;;;;;6.37;5.77;;;;;;;3.40;100.00;101554.81;5102454;28;20203;-77
2023/12/16 05:45:20;;;;;;;7.40;6.37;;;;;;;3.41;100.00;101555.63;5112631;28;20211;-79
2023/12/16 05:47:47;;;;;;;7.80;6.60;;;;;;;3.42;100.00;101560.81;5110738;28;20276;-80
2023/12/16 05:50:14;;;;;;;7.93;6.80;;;;;;;3.44;100.00;101560.69;5102401;28;20625;-77
2023/12/16 05:52:43;;;;;;;7.67;6.53;;;;;;;3.40;100.00;101565.41;5112115;28;20194;-78
2023/12/16 05:55:15;;;;;;;7.87;6.47;;;;;;;3.41;100.00;101560.94;5111403;28;20223;-78
2023/12/16 05:57:46;;;;;;;7.30;6.47;;;;;;;3.43;100.00;101561.66;5112499;28;20690;-80
2023/12/16 06:00:13;;;;;;;7.60;6.47;;;;;;;3.41;100.00;101569.72;5105736;28;20184;-78
2023/12/16 06:02:39;;;;;;;9.07;7.20;;;;;;;3.34;100.00;101567.72;5109892;28;20183;-77
2023/12/16 06:05:07;;;;;;;7.23;6.43;;;;;;;3.31;100.00;101566.13;5112219;28;20184;-76
2023/12/16 06:07:37;;;;;;;8.23;6.67;;;;;;;3.29;100.00;101573.38;5112356;28;20294;-76
2023/12/16 06:10:08;;;;;;;8.50;6.30;;;;;;;3.29;100.00;101573.38;5112192;28;20728;-77
2023/12/16 06:12:40;;;;;;;7.17;6.40;;;;;;;3.29;100.00;101572.53;5111803;28;20188;-77
2023/12/16 06:15:13;;;;;;;8.40;6.23;;;;;;;3.35;100.00;101578.19;5110984;28;20226;-76
2023/12/16 06:17:39;;;;;;;7.90;6.30;;;;;;;3.51;100.00;101581.25;5110406;28;20214;-77
2023/12/16 06:20:10;;;;;;;7.57;6.33;;;;;;;3.54;100.00;101582.81;5105969;28;20231;-78
2023/12/16 06:22:46;;;;;;;7.67;6.30;;;;;;;3.64;100.00;101593.50;5111146;28;20197;-77
2023/12/16 06:25:13;;;;;;;7.20;6.50;;;;;;;3.68;100.00;101590.47;5103328;28;20215;-77
2023/12/16 06:27:44;;;;;;;7.77;6.97;;;;;;;3.72;100.00;101591.03;5103254;28;20298;-78
2023/12/16 06:30:13;;;;;;;7.23;6.53;;;;;;;3.76;100.00;101587.16;5109783;28;20199;-78
2023/12/16 06:33:00;;;;;;;8.00;7.20;;;;;;;3.77;100.00;101591.50;5109086;28;20271;-78
2023/12/16 06:35:31;;;;;;;8.20;7.20;;;;;;;3.88;100.00;101591.44;5095216;28;20696;-77
2023/12/16 06:37:58;;;;;;;7.67;6.73;;;;;;;3.88;100.00;101594.94;5093237;28;20211;-76
2023/12/16 06:40:24;;;;;;;8.37;7.37;;;;;;;3.87;100.00;101593.22;5104884;28;20188;-78
2023/12/16 06:42:54;;;;;;;8.30;7.13;;;;;;;3.86;100.00;101594.22;5111665;28;20183;-77
2023/12/16 06:45:20;;;;;;;8.50;7.17;;;;;;;3.84;100.00;101593.50;5107537;28;20682;-76
2023/12/16 06:47:48;;;;;;;7.97;7.17;;;;;;;3.88;100.00;101596.72;5103862;28;20208;-78
2023/12/16 06:50:15;;;;;;;7.87;7.07;;;;;;;3.88;100.00;101605.53;5103195;28;20204;-78
2023/12/16 06:52:45;;;;;;;7.77;6.97;;;;;;;3.92;100.00;101614.91;5112306;28;20206;-78
2023/12/16 06:55:14;;;;;;;7.53;6.63;;;;;;;4.01;100.00;101605.38;5111841;28;20254;-78
2023/12/16 06:57:43;;;;;;;7.57;6.77;;;;;;;3.97;100.00;101610.06;5110850;28;20230;-78
2023/12/16 07:00:11;;;;;;;8.30;7.40;;;;;;;3.98;100.00;101606.44;5114916;28;20286;-78
2023/12/16 07:02:41;;;;;;;7.37;6.67;;;;;;;3.99;100.00;101602.00;5114728;28;20187;-78
2023/12/16 07:05:11;;;;;;;9.20;7.53;;;;;;;4.08;100.00;101603.00;5108700;28;20195;-78
2023/12/16 07:07:38;;;;;;;7.87;7.07;;;;;;;4.12;100.00;101607.09;5108047;28;20219;-78
2023/12/16 07:10:08;;;;;;;8.43;7.50;;;;;;;4.12;100.00;101602.63;5112942;28;20207;-78
2023/12/16 07:12:35;;;;;;;9.03;7.20;;;;;;;4.14;100.00;101603.34;5109594;28;20187;-77
2023/12/16 07:15:06;;;;;;;7.00;6.37;;;;;;;4.18;100.00;101604.75;5097247;28;20188;-78
2023/12/16 07:17:40;;;;;;;7.87;7.07;;;;;;;4.18;100.00;101606.56;5107449;28;20187;-77
2023/12/16 07:20:10;;;;;;;7.50;6.57;;;;;;;4.22;100.00;101608.84;5102276;28;20273;-79
2023/12/16 07:22:38;;;;;;;7.50;6.70;;;;;;;4.27;100.00;101611.09;5096023;28;20200;-75
2023/12/16 07:25:04;;;;;;;7.77;6.53;;;;;;;4.36;100.00;101615.63;5099088;28;20188;-78
2023/12/16 07:27:31;;;;;;;7.13;6.43;;;;;;;4.42;100.00;101610.63;5101283;28;20757;-76
2023/12/16 07:29:58;;;;;;;6.20;5.60;;;;;;;4.44;100.00;101621.09;5096076;28;20250;-79
2023/12/16 07:32:26;;;;;;;6.90;6.17;;;;;;;4.43;100.00;101622.91;5094261;28;20192;-80
2023/12/16 07:34:56;;;;;;;6.47;5.87;;;;;;;4.48;100.00;101627.81;5097154;28;20223;-76
2023/12/16 07:37:23;;;;;;;7.87;5.70;;;;;;;4.54;100.00;101632.59;5097223;28;20204;-78
2023/12/16 07:40:00;;;;;;;6.50;5.90;;;;;;;4.64;100.00;101637.97;5089428;28;20215;-77
2023/12/16 07:42:29;;;;;;;6.23;5.27;;;;;;;4.68;100.00;101636.72;5090278;28;20254;-79
2023/12/16 07:44:58;;;;;;;5.93;5.03;;;;;;;4.70;100.00;101634.78;5098026;28;20196;-78
2023/12/16 07:47:31;;;;;;;7.17;5.23;;;;;;;4.69;100.00;101636.59;5097830;28;20219;-77
2023/12/16 07:49:58;;;;;;;5.73;5.13;;;;;;;4.74;100.00;101631.72;5108766;28;20215;-77
2023/12/16 07:52:28;;;;;;;5.57;5.00;;;;;;;4.74;100.00;101633.53;5097399;28;20291;-78
2023/12/16 07:54:55;;;;;;;5.43;4.93;;;;;;;4.84;100.00;101634.44;5107256;28;20302;-79
2023/12/16 07:57:22;;;;;;;5.57;4.50;;;;;;;4.92;100.00;101639.91;5114198;28;20223;-77
2023/12/16 07:59:49;;;;;;;7.13;4.80;;;;;;;5.04;100.00;101641.47;5107004;28;20223;-78
2023/12/16 08:02:20;;;;;;;5.80;4.17;;;;;;;5.11;100.00;101633.81;5110629;28;20199;-78
2023/12/16 08:04:53;;;;;;;4.77;4.10;;;;;;;5.21;100.00;101635.53;5093637;28;20200;-78
2023/12/16 08:07:20;;;;;;;4.37;3.97;;;;;;;5.33;100.00;101637.06;5104772;28;20425;-78
2023/12/16 08:09:50;;;;;;;4.50;4.10;;;;;;;5.44;100.00;101644.09;5108048;28;20207;-77
2023/12/16 08:12:17;;;;;;;4.83;4.20;;;;;;;5.49;100.00;101639.22;5092739;28;20993;-78
2023/12/16 08:14:45;;;;;;;5.00;4.40;;;;;;;5.56;100.00;101644.78;5107782;28;20248;-79
2023/12/16 08:17:12;;;;;;;6.50;4.33;;;;;;;5.60;100.00;101647.03;5105117;28;20258;-78
2023/12/16 08:19:38;;;;;;;5.70;4.37;;;;;;;5.69;100.00;101638.22;5103928;28;20283;-79
2023/12/16 08:22:06;;;;;;;6.27;5.07;;;;;;;5.74;100.00;101643.97;5106302;28;20234;-78
2023/12/16 08:24:35;;;;;;;5.37;4.33;;;;;;;5.86;100.00;101647.34;5112909;28;20206;-79
2023/12/16 08:27:02;;;;;;;4.40;3.93;;;;;;;5.84;100.00;101643.13;5094230;28;21431;-77
2023/12/16 08:29:31;;;;;;;5.63;4.43;;;;;;;6.01;100.00;101642.47;5108582;28;20185;-79
2023/12/16 08:31:59;;;;;;;5.10;4.30;;;;;;;5.97;100.00;101633.09;5094151;28;20193;-78
2023/12/16 08:34:25;;;;;;;5.17;4.17;;;;;;;6.04;100.00;101647.50;5100478;28;20203;-79
2023/12/16 08:36:54;;;;;;;4.70;3.90;;;;;;;6.09;100.00;101643.44;5095157;28;20189;-77
2023/12/16 08:39:22;;;;;;;5.07;4.40;;;;;;;5.98;100.00;101646.25;5102639;28;20203;-78
2023/12/16 08:41:49;;;;;;;5.03;4.10;;;;;;;6.08;100.00;101652.41;5107446;28;20253;-79
2023/12/16 08:44:17;;;;;;;5.03;4.23;;;;;;;6.14;100.00;101659.84;5110227;28;20195;-78
2023/12/16 08:46:46;;;;;;;5.17;4.37;;;;;;;6.16;100.00;101660.50;5083571;28;20208;-77
2023/12/16 08:49:16;;;;;;;4.90;3.70;;;;;;;6.20;100.00;101669.06;5099323;28;20614;-77
2023/12/16 08:51:43;;;;;;;4.73;3.77;;;;;;;6.28;100.00;101666.53;5102634;28;20190;-77
2023/12/16 08:54:17;;;;;;;4.33;3.90;;;;;;;6.38;100.00;101667.38;5104652;28;21024;-79
2023/12/16 08:56:44;;;;;;;5.80;4.13;;;;;;;6.45;100.00;101672.94;5100170;28;20203;-79
2023/12/16 08:59:11;;;;;;;4.63;3.70;;;;;;;6.48;100.00;101662.88;5110308;28;20187;-79
2023/12/16 09:01:39;;;;;;;4.53;3.70;;;;;;;6.53;100.00;101678.41;5096444;28;20188;-78
2023/12/16 09:04:08;;;;;;;4.03;3.63;;;;;;;6.62;100.00;101685.53;5096364;28;20192;-77
2023/12/16 09:06:39;;;;;;;4.33;3.90;;;;;;;6.58;100.00;101673.47;5092480;28;20193;-79
2023/12/16 09:09:06;;;;;;;6.00;4.00;;;;;;;6.72;100.00;101682.84;5091936;28;20306;-80
2023/12/16 09:11:44;;;;;;;4.57;3.67;;;;;;;6.75;100.00;101694.03;5094826;28;20678;-79
2023/12/16 09:14:16;;;;;;;5.77;3.80;;;;;;;6.71;100.00;101702.47;5090893;28;20572;-79
2023/12/16 09:16:45;;;;;;;4.83;3.50;;;;;;;6.71;100.00;101697.97;5105647;28;20203;-78
2023/12/16 09:19:15;;;;;;;5.07;4.00;;;;;;;6.70;100.00;101687.47;5102723;28;20211;-79
2023/12/16 09:21:42;;;;;;;4.53;3.97;;;;;;;6.90;100.00;101700.59;5101478;28;20219;-78
2023/12/16 09:24:09;;;;;;;4.20;3.80;;;;;;;6.79;100.00;101699.91;5108306;28;20256;-78
2023/12/16 09:26:37;;;;;;;4.63;4.00;;;;;;;6.82;100.00;101705.78;5096817;28;20210;-78
2023/12/16 09:29:04;;;;;;;5.80;4.03;;;;;;;6.97;100.00;101706.16;5105531;28;20203;-78
2023/12/16 09:31:32;;;;;;;3.90;3.47;;;;;;;6.97;100.00;101706.16;5103875;28;20215;-79
2023/12/16 09:34:01;;;;;;;5.27;4.00;;;;;;;7.02;100.00;101715.41;5080278;28;20215;-81
2023/12/16 09:36:29;;;;;;;4.57;3.87;;;;;;;7.09;100.00;101703.16;5087330;28;20225;-80
2023/12/16 09:39:02;;;;;;;5.07;3.90;;;;;;;7.12;100.00;101706.53;5101341;28;20213;-78
2023/12/16 09:41:31;;;;;;;4.87;4.03;;;;;;;7.22;100.00;101700.19;5107862;28;20195;-78
2023/12/16 09:43:59;;;;;;;4.70;3.60;;;;;;;7.17;100.00;101701.59;5092975;28;20200;-78
2023/12/16 09:46:33;;;;;;;5.13;3.90;;;;;;;7.21;100.00;101705.63;5092566;28;20192;-79
2023/12/16 09:49:00;;;;;;;4.90;3.87;;;;;;;7.17;100.00;101699.78;5089746;28;20253;-79
2023/12/16 09:51:27;;;;;;;4.17;3.77;;;;;;;7.25;100.00;101680.34;5100379;28;20279;-76
2023/12/16 09:53:55;;;;;;;4.37;3.70;;;;;;;7.22;100.00;101686.84;5093630;28;20281;-81
2023/12/16 09:56:23;;;;;;;5.97;3.77;;;;;;;7.26;100.00;101682.03;5097425;28;20215;-78
2023/12/16 09:58:52;;;;;;;4.43;3.80;;;;;;;7.29;100.00;101674.59;5082984;28;20198;-79
2023/12/16 10:01:19;;;;;;;4.60;3.80;;;;;;;7.35;100.00;101675.81;5104339;28;20222;-81
2023/12/16 10:03:47;;;;;;;4.03;3.63;;;;;;;7.45;100.00;101664.13;5077735;28;20192;-80
2023/12/16 10:06:16;;;;;;;4.57;3.80;;;;;;;7.47;100.00;101663.94;5102562;28;20187;-84
2023/12/16 10:08:44;;;;;;;4.70;4.20;;;;;;;7.53;100.00;101671.34;5098968;28;20240;-78
2023/12/16 10:11:11;;;;;;;5.13;3.80;;;;;;;7.64;100.00;101665.81;5104902;28;20209;-80
2023/12/16 10:14:03;;;;;;;4.37;3.97;;;;;;;7.80;100.00;101660.63;5099804;28;20267;-79
2023/12/16 10:16:33;;;;;;;6.23;4.10;;;;;;;7.72;100.00;101655.22;5103487;28;20247;-78
2023/12/16 10:19:00;;;;;;;3.93;3.53;;;;;;;7.88;100.00;101665.22;5098790;28;20278;-79
2023/12/16 10:21:30;;;;;;;5.27;3.77;;;;;;;7.92;100.00;101654.06;5110119;28;20200;-80
2023/12/16 10:24:01;;;;;;;4.57;3.90;;;;;;;8.02;100.00;101658.50;5106254;28;20196;-80
2023/12/16 10:26:33;;;;;;;4.53;4.00;;;;;;;8.07;100.00;101661.53;5107355;28;20198;-81
2023/12/16 10:29:04;;;;;;;3.80;3.37;;;;;;;8.02;100.00;101651.31;5088706;28;20223;-80
2023/12/16 10:31:34;;;;;;;5.23;3.40;;;;;;;8.13;100.00;101650.22;5111556;28;20207;-81
2023/12/16 10:34:03;;;;;;;6.30;3.53;;;;;;;8.16;100.00;101650.78;5097575;28;20191;-78
2023/12/16 10:36:36;;;;;;;6.17;3.83;;;;;;;8.00;100.00;101644.44;5109580;28;20187;-79
2023/12/16 10:39:05;;;;;;;5.37;4.03;;;;;;;8.09;100.00;101643.53;5106247;28;20282;-78
2023/12/16 10:41:35;;;;;;;4.33;3.77;;;;;;;8.16;100.00;101645.44;5114671;28;20192;-79
2023/12/16 10:44:03;;;;;;;5.00;3.93;;;;;;;8.18;100.00;101630.09;5114477;28;20198;-81
2023/12/16 10:46:35;;;;;;;4.40;3.80;;;;;;;8.03;100.00;101633.44;5114083;28;20222;-78
2023/12/16 10:49:02;;;;;;;4.47;3.63;;;;;;;8.09;100.00;101624.84;5111401;28;20215;-79
2023/12/16 10:51:32;;;;;;;4.40;3.93;;;;;;;8.07;100.00;101630.31;5108349;28;20240;-79
2023/12/16 10:54:17;;;;;;;5.00;3.80;;;;;;;7.92;100.00;101618.53;5107238;28;20230;-79
2023/12/16 10:56:51;;;;;;;4.30;3.90;;;;;;;8.08;100.00;101621.31;5109420;28;20219;-79
2023/12/16 10:59:23;;;;;;;5.60;3.97;;;;;;;7.91;100.00;101615.03;5108532;28;20217;-80
2023/12/16 11:01:56;;;;;;;4.97;4.17;;;;;;;7.92;100.00;101610.53;5059477;28;20590;-79
2023/12/16 11:04:24;;;;;;;4.93;3.87;;;;;;;7.82;100.00;101613.28;5095485;28;20194;-80
2023/12/16 11:07:07;;;;;;;6.00;3.80;;;;;;;7.56;100.00;101609.69;5085806;28;20270;-78
2023/12/16 11:09:40;;;;;;;4.67;3.60;;;;;;;7.57;100.00;101606.03;5086425;28;20318;-78
2023/12/16 11:12:11;;;;;;;4.93;3.50;;;;;;;7.44;100.00;101608.25;5105410;28;20219;-78
2023/12/16 11:14:38;;;;;;;3.40;3.10;;;;;;;7.40;100.00;101609.53;5099833;28;20219;-79
2023/12/16 11:17:08;;;;;;;4.53;3.30;;;;;;;7.26;100.00;101608.22;5107011;28;20298;-78
2023/12/16 11:19:55;;;;;;;4.97;3.30;;;;;;;7.26;100.00;101613.56;5105092;28;20706;-78
2023/12/16 11:22:24;;;;;;;5.90;3.40;;;;;;;7.31;100.00;101610.44;5080731;28;20195;-79
2023/12/16 11:24:56;;;;;;;4.80;3.50;;;;;;;7.31;100.00;101611.28;5093653;28;20545;-80
2023/12/16 11:27:24;;;;;;;4.87;3.90;;;;;;;7.35;100.00;101615.34;5100741;28;20191;-81
2023/12/16 11:29:54;;;;;;;5.37;3.40;;;;;;;7.33;100.00;101611.13;5113170;28;20679;-79
2023/12/16 11:32:23;;;;;;;4.07;3.50;;;;;;;7.38;100.00;101614.19;5100425;28;20192;-81
2023/12/16 11:34:54;;;;;;;4.60;3.40;;;;;;;7.47;100.00;101615.94;5112896;28;20613;-80
2023/12/16 11:37:43;;;;;;;4.00;3.13;;;;;;;7.56;100.00;101608.88;5102640;28;20211;-79